sensor_id;sensor_type;location;lat;lon;timestamp;pressure;altitude;pressure_sealevel;temperature;humidity
67430;BME280;54298;52.076;5.264;2023-04-07T00:01:12;101382.0;;;9.69;89.38
67430;BME280;54298;52.076;5.264;2023-04-07T00:04:24;101384.0;;;9.81;89.08
67430;BME280;54298;52.076;5.264;2023-04-07T00:06:00;101386.0;;;9.82;88.7
67430;BME280;54298;52.076;5.264;2023-04-07T00:07:36;101381.0;;;9.83;88.62
67430;BME280;54298;52.076;5.264;2023-04-07T00:09:12;101380.0;;;9.81;88.86
67430;BME280;54298;52.076;5.264;2023-04-07T00:12:25;101385.0;;;9.8;88.55
67430;BME280;54298;52.076;5.264;2023-04-07T00:14:01;101385.0;;;9.8;88.78
67430;BME280;54298;52.076;5.264;2023-04-07T00:15:37;101385.0;;;9.68;89.13
67430;BME280;54298;52.076;5.264;2023-04-07T00:18:50;101385.0;;;9.84;88.53
67430;BME280;54298;52.076;5.264;2023-04-07T00:20:27;101392.0;;;9.86;88.49
67430;BME280;54298;52.076;5.264;2023-04-07T00:22:03;101398.0;;;9.8;88.72
67430;BME280;54298;52.076;5.264;2023-04-07T00:25:15;101397.0;;;9.76;88.7
67430;BME280;54298;52.076;5.264;2023-04-07T00:26:51;101392.0;;;9.73;88.86
67430;BME280;54298;52.076;5.264;2023-04-07T00:28:27;101393.0;;;9.81;88.6
67430;BME280;54298;52.076;5.264;2023-04-07T00:30:04;101392.0;;;9.82;88.27
67430;BME280;54298;52.076;5.264;2023-04-07T00:33:18;101394.0;;;9.75;88.45
67430;BME280;54298;52.076;5.264;2023-04-07T00:34:54;101394.0;;;9.77;88.57
67430;BME280;54298;52.076;5.264;2023-04-07T00:36:30;101399.0;;;9.78;88.49
67430;BME280;54298;52.076;5.264;2023-04-07T00:39:42;101398.0;;;9.8;88.28
67430;BME280;54298;52.076;5.264;2023-04-07T00:41:18;101395.0;;;9.69;88.51
67430;BME280;54298;52.076;5.264;2023-04-07T00:42:54;101397.0;;;9.84;87.97
67430;BME280;54298;52.076;5.264;2023-04-07T00:46:07;101395.0;;;9.66;88.64
67430;BME280;54298;52.076;5.264;2023-04-07T00:47:43;101389.0;;;9.51;89.55
67430;BME280;54298;52.076;5.264;2023-04-07T00:49:19;101392.0;;;9.75;88.33
67430;BME280;54298;52.076;5.264;2023-04-07T00:52:32;101392.0;;;9.74;88.25
67430;BME280;54298;52.076;5.264;2023-04-07T00:54:09;101400.0;;;9.76;88.22
67430;BME280;54298;52.076;5.264;2023-04-07T00:55:45;101400.0;;;9.59;88.47
67430;BME280;54298;52.076;5.264;2023-04-07T00:57:21;101400.0;;;9.73;88.3
67430;BME280;54298;52.076;5.264;2023-04-07T01:00:37;101400.0;;;9.66;88.54
67430;BME280;54298;52.076;5.264;2023-04-07T01:02:20;101393.0;;;9.59;88.93
67430;BME280;54298;52.076;5.264;2023-04-07T01:04:01;101397.0;;;9.67;88.5
67430;BME280;54298;52.076;5.264;2023-04-07T01:05:49;101397.0;;;9.73;88.35
67430;BME280;54298;52.076;5.264;2023-04-07T01:09:17;101396.0;;;9.71;88.61
67430;BME280;54298;52.076;5.264;2023-04-07T01:10:59;101398.0;;;9.65;88.65
67430;BME280;54298;52.076;5.264;2023-04-07T01:12:46;101395.0;;;9.67;88.38
67430;BME280;54298;52.076;5.264;2023-04-07T01:14:31;101396.0;;;9.69;88.3
67430;BME280;54298;52.076;5.264;2023-04-07T01:16:12;101396.0;;;9.73;88.14
67430;BME280;54298;52.076;5.264;2023-04-07T01:19:49;101390.0;;;9.74;88.0
67430;BME280;54298;52.076;5.264;2023-04-07T01:21:32;101395.0;;;9.68;88.05
67430;BME280;54298;52.076;5.264;2023-04-07T01:23:16;101400.0;;;9.59;88.09
67430;BME280;54298;52.076;5.264;2023-04-07T01:25:10;101400.0;;;9.68;88.06
67430;BME280;54298;52.076;5.264;2023-04-07T01:27:03;101395.0;;;9.68;87.81
67430;BME280;54298;52.076;5.264;2023-04-07T01:31:08;101393.0;;;9.72;87.72
67430;BME280;54298;52.076;5.264;2023-04-07T01:34:29;101397.0;;;9.73;87.67
67430;BME280;54298;52.076;5.264;2023-04-07T01:36:08;101396.0;;;9.78;87.61
67430;BME280;54298;52.076;5.264;2023-04-07T01:37:46;101399.0;;;9.6;88.24
67430;BME280;54298;52.076;5.264;2023-04-07T01:39:25;101402.0;;;9.71;87.9
67430;BME280;54298;52.076;5.264;2023-04-07T01:42:39;101400.0;;;9.73;87.82
67430;BME280;54298;52.076;5.264;2023-04-07T01:44:18;101402.0;;;9.67;87.83
67430;BME280;54298;52.076;5.264;2023-04-07T01:45:55;101401.0;;;9.68;87.68
67430;BME280;54298;52.076;5.264;2023-04-07T01:47:33;101407.0;;;9.76;87.42
67430;BME280;54298;52.076;5.264;2023-04-07T01:50:48;101405.0;;;9.71;87.5
67430;BME280;54298;52.076;5.264;2023-04-07T01:52:25;101408.0;;;9.72;87.48
67430;BME280;54298;52.076;5.264;2023-04-07T01:54:03;101405.0;;;9.73;87.29
67430;BME280;54298;52.076;5.264;2023-04-07T01:57:16;101403.0;;;9.81;86.88
67430;BME280;54298;52.076;5.264;2023-04-07T01:58:52;101405.0;;;9.71;87.35
67430;BME280;54298;52.076;5.264;2023-04-07T02:00:28;101405.0;;;9.75;87.42
67430;BME280;54298;52.076;5.264;2023-04-07T02:03:43;101402.0;;;9.75;87.42
67430;BME280;54298;52.076;5.264;2023-04-07T02:05:23;101402.0;;;9.73;87.26
67430;BME280;54298;52.076;5.264;2023-04-07T02:07:06;101403.0;;;9.65;87.65
67430;BME280;54298;52.076;5.264;2023-04-07T02:08:48;101396.0;;;9.67;87.56
67430;BME280;54298;52.076;5.264;2023-04-07T02:10:34;101399.0;;;9.73;87.43
67430;BME280;54298;52.076;5.264;2023-04-07T02:13:52;101397.0;;;9.72;87.18
67430;BME280;54298;52.076;5.264;2023-04-07T02:15:30;101396.0;;;9.67;87.26
67430;BME280;54298;52.076;5.264;2023-04-07T02:17:07;101397.0;;;9.67;87.28
67430;BME280;54298;52.076;5.264;2023-04-07T02:20:22;101397.0;;;9.68;87.24
67430;BME280;54298;52.076;5.264;2023-04-07T02:21:59;101394.0;;;9.71;87.0
67430;BME280;54298;52.076;5.264;2023-04-07T02:23:38;101394.0;;;9.67;87.02
67430;BME280;54298;52.076;5.264;2023-04-07T02:25:23;101396.0;;;9.64;86.98
67430;BME280;54298;52.076;5.264;2023-04-07T02:28:36;101399.0;;;9.71;86.71
67430;BME280;54298;52.076;5.264;2023-04-07T02:30:13;101400.0;;;9.71;86.72
67430;BME280;54298;52.076;5.264;2023-04-07T02:31:49;101399.0;;;9.61;86.84
67430;BME280;54298;52.076;5.264;2023-04-07T02:35:01;101398.0;;;9.69;86.88
67430;BME280;54298;52.076;5.264;2023-04-07T02:36:38;101401.0;;;9.64;87.49
67430;BME280;54298;52.076;5.264;2023-04-07T02:38:14;101398.0;;;9.73;86.7
67430;BME280;54298;52.076;5.264;2023-04-07T02:39:50;101396.0;;;9.83;86.4
67430;BME280;54298;52.076;5.264;2023-04-07T02:43:02;101396.0;;;9.74;86.52
67430;BME280;54298;52.076;5.264;2023-04-07T02:44:38;101401.0;;;9.69;86.61
67430;BME280;54298;52.076;5.264;2023-04-07T02:46:14;101399.0;;;9.65;86.64
67430;BME280;54298;52.076;5.264;2023-04-07T02:49:26;101397.0;;;9.8;86.09
67430;BME280;54298;52.076;5.264;2023-04-07T02:51:03;101405.0;;;9.74;86.43
67430;BME280;54298;52.076;5.264;2023-04-07T02:52:39;101405.0;;;9.67;86.78
67430;BME280;54298;52.076;5.264;2023-04-07T02:55:51;101406.0;;;9.74;86.3
67430;BME280;54298;52.076;5.264;2023-04-07T02:57:27;101405.0;;;9.67;86.17
67430;BME280;54298;52.076;5.264;2023-04-07T02:59:03;101403.0;;;9.73;86.24
67430;BME280;54298;52.076;5.264;2023-04-07T03:00:39;101405.0;;;9.73;86.05
67430;BME280;54298;52.076;5.264;2023-04-07T03:03:52;101406.0;;;9.8;85.87
67430;BME280;54298;52.076;5.264;2023-04-07T03:05:28;101408.0;;;9.68;86.14
67430;BME280;54298;52.076;5.264;2023-04-07T03:07:04;101408.0;;;9.73;86.17
67430;BME280;54298;52.076;5.264;2023-04-07T03:10:16;101407.0;;;9.69;86.28
67430;BME280;54298;52.076;5.264;2023-04-07T03:11:53;101409.0;;;9.61;86.4
67430;BME280;54298;52.076;5.264;2023-04-07T03:13:28;101407.0;;;9.76;86.02
67430;BME280;54298;52.076;5.264;2023-04-07T03:16:42;101405.0;;;9.77;85.88
67430;BME280;54298;52.076;5.264;2023-04-07T03:18:18;101408.0;;;9.67;86.09
67430;BME280;54298;52.076;5.264;2023-04-07T03:19:54;101405.0;;;9.71;85.89
67430;BME280;54298;52.076;5.264;2023-04-07T03:23:07;101407.0;;;9.68;86.27
67430;BME280;54298;52.076;5.264;2023-04-07T03:24:43;101407.0;;;9.61;86.43
67430;BME280;54298;52.076;5.264;2023-04-07T03:26:19;101405.0;;;9.65;86.28
67430;BME280;54298;52.076;5.264;2023-04-07T03:27:55;101406.0;;;9.71;86.15
67430;BME280;54298;52.076;5.264;2023-04-07T03:31:07;101405.0;;;9.66;86.16
67430;BME280;54298;52.076;5.264;2023-04-07T03:32:43;101410.0;;;9.71;85.91
67430;BME280;54298;52.076;5.264;2023-04-07T03:34:19;101403.0;;;9.78;85.74
67430;BME280;54298;52.076;5.264;2023-04-07T03:37:32;101400.0;;;9.83;85.41
67430;BME280;54298;52.076;5.264;2023-04-07T03:39:08;101405.0;;;9.83;85.39
67430;BME280;54298;52.076;5.264;2023-04-07T03:40:44;101410.0;;;9.74;85.81
67430;BME280;54298;52.076;5.264;2023-04-07T03:43:56;101410.0;;;9.74;85.77
67430;BME280;54298;52.076;5.264;2023-04-07T03:45:32;101412.0;;;9.76;85.52
67430;BME280;54298;52.076;5.264;2023-04-07T03:47:08;101410.0;;;9.81;85.46
67430;BME280;54298;52.076;5.264;2023-04-07T03:50:21;101412.0;;;9.81;85.45
67430;BME280;54298;52.076;5.264;2023-04-07T03:51:57;101409.0;;;9.82;85.46
67430;BME280;54298;52.076;5.264;2023-04-07T03:53:33;101417.0;;;9.73;85.6
67430;BME280;54298;52.076;5.264;2023-04-07T03:55:09;101421.0;;;9.82;85.34
67430;BME280;54298;52.076;5.264;2023-04-07T03:58:21;101422.0;;;9.78;85.53
67430;BME280;54298;52.076;5.264;2023-04-07T03:59:58;101419.0;;;9.78;85.34
67430;BME280;54298;52.076;5.264;2023-04-07T04:01:34;101420.0;;;9.77;85.2
67430;BME280;54298;52.076;5.264;2023-04-07T04:04:46;101417.0;;;9.81;85.12
67430;BME280;54298;52.076;5.264;2023-04-07T04:06:22;101420.0;;;9.82;84.99
67430;BME280;54298;52.076;5.264;2023-04-07T04:07:58;101421.0;;;9.78;85.28
67430;BME280;54298;52.076;5.264;2023-04-07T04:11:11;101417.0;;;9.84;85.23
67430;BME280;54298;52.076;5.264;2023-04-07T04:12:47;101418.0;;;9.83;85.18
67430;BME280;54298;52.076;5.264;2023-04-07T04:14:24;101424.0;;;9.77;85.19
67430;BME280;54298;52.076;5.264;2023-04-07T04:16:00;101417.0;;;9.83;84.91
67430;BME280;54298;52.076;5.264;2023-04-07T04:19:12;101422.0;;;9.83;84.69
67430;BME280;54298;52.076;5.264;2023-04-07T04:20:48;101422.0;;;9.82;84.66
67430;BME280;54298;52.076;5.264;2023-04-07T04:22:24;101420.0;;;9.75;84.82
67430;BME280;54298;52.076;5.264;2023-04-07T04:25:37;101418.0;;;9.77;85.03
67430;BME280;54298;52.076;5.264;2023-04-07T04:27:14;101419.0;;;9.78;84.75
67430;BME280;54298;52.076;5.264;2023-04-07T04:28:51;101420.0;;;9.77;84.93
67430;BME280;54298;52.076;5.264;2023-04-07T04:33:40;101423.0;;;9.78;84.72
67430;BME280;54298;52.076;5.264;2023-04-07T04:35:17;101428.0;;;9.75;84.62
67430;BME280;54298;52.076;5.264;2023-04-07T04:38:30;101431.0;;;9.69;84.49
67430;BME280;54298;52.076;5.264;2023-04-07T04:40:06;101433.0;;;9.71;84.59
67430;BME280;54298;52.076;5.264;2023-04-07T04:41:43;101433.0;;;9.74;84.79
67430;BME280;54298;52.076;5.264;2023-04-07T04:46:33;101436.0;;;9.77;84.66
67430;BME280;54298;52.076;5.264;2023-04-07T04:48:09;101449.0;;;9.53;85.58
67430;BME280;54298;52.076;5.264;2023-04-07T04:52:58;101450.0;;;9.66;85.51
67430;BME280;54298;52.076;5.264;2023-04-07T04:54:34;101452.0;;;9.72;85.4
67430;BME280;54298;52.076;5.264;2023-04-07T04:56:11;101457.0;;;9.73;85.25
67430;BME280;54298;52.076;5.264;2023-04-07T04:59:24;101456.0;;;9.74;84.61
67430;BME280;54298;52.076;5.264;2023-04-07T05:00:59;101460.0;;;9.63;84.7
67430;BME280;54298;52.076;5.264;2023-04-07T05:02:36;101458.0;;;9.68;84.48
67430;BME280;54298;52.076;5.264;2023-04-07T05:04:13;101457.0;;;9.72;84.04
67430;BME280;54298;52.076;5.264;2023-04-07T05:07:27;101464.0;;;9.66;84.07
67430;BME280;54298;52.076;5.264;2023-04-07T05:09:03;101460.0;;;9.61;84.28
67430;BME280;54298;52.076;5.264;2023-04-07T05:10:41;101464.0;;;9.69;83.83
67430;BME280;54298;52.076;5.264;2023-04-07T05:13:54;101467.0;;;9.66;83.98
67430;BME280;54298;52.076;5.264;2023-04-07T05:15:30;101460.0;;;9.67;84.03
67430;BME280;54298;52.076;5.264;2023-04-07T05:17:08;101462.0;;;9.64;84.37
67430;BME280;54298;52.076;5.264;2023-04-07T05:18:44;101460.0;;;9.61;84.7
67430;BME280;54298;52.076;5.264;2023-04-07T05:21:57;101462.0;;;9.69;84.51
67430;BME280;54298;52.076;5.264;2023-04-07T05:23:34;101465.0;;;9.64;84.48
67430;BME280;54298;52.076;5.264;2023-04-07T05:25:11;101469.0;;;9.63;84.51
67430;BME280;54298;52.076;5.264;2023-04-07T05:28:24;101471.0;;;9.67;84.45
67430;BME280;54298;52.076;5.264;2023-04-07T05:30:00;101471.0;;;9.61;84.58
67430;BME280;54298;52.076;5.264;2023-04-07T05:31:36;101467.0;;;9.65;84.49
67430;BME280;54298;52.076;5.264;2023-04-07T05:34:49;101471.0;;;9.68;84.46
67430;BME280;54298;52.076;5.264;2023-04-07T05:36:26;101472.0;;;9.61;84.76
67430;BME280;54298;52.076;5.264;2023-04-07T05:38:02;101478.0;;;9.67;84.7
67430;BME280;54298;52.076;5.264;2023-04-07T05:39:39;101475.0;;;9.73;84.57
67430;BME280;54298;52.076;5.264;2023-04-07T05:42:52;101480.0;;;9.75;84.09
67430;BME280;54298;52.076;5.264;2023-04-07T05:46:06;101480.0;;;9.73;84.02
67430;BME280;54298;52.076;5.264;2023-04-07T05:49:18;101484.0;;;9.72;83.9
67430;BME280;54298;52.076;5.264;2023-04-07T05:50:54;101480.0;;;9.77;83.59
67430;BME280;54298;52.076;5.264;2023-04-07T05:52:32;101488.0;;;9.73;83.54
67430;BME280;54298;52.076;5.264;2023-04-07T05:55:45;101482.0;;;9.73;83.31
67430;BME280;54298;52.076;5.264;2023-04-07T05:57:22;101489.0;;;9.74;83.56
67430;BME280;54298;52.076;5.264;2023-04-07T05:58:58;101484.0;;;9.74;83.44
67430;BME280;54298;52.076;5.264;2023-04-07T06:00:35;101489.0;;;9.66;84.28
67430;BME280;54298;52.076;5.264;2023-04-07T06:03:48;101487.0;;;9.76;84.06
67430;BME280;54298;52.076;5.264;2023-04-07T06:05:24;101492.0;;;9.8;83.75
67430;BME280;54298;52.076;5.264;2023-04-07T06:07:01;101488.0;;;9.78;83.56
67430;BME280;54298;52.076;5.264;2023-04-07T06:10:14;101493.0;;;9.75;83.22
67430;BME280;54298;52.076;5.264;2023-04-07T06:11:50;101499.0;;;9.84;83.2
67430;BME280;54298;52.076;5.264;2023-04-07T06:13:26;101501.0;;;9.83;82.86
67430;BME280;54298;52.076;5.264;2023-04-07T06:16:39;101505.0;;;9.73;83.56
67430;BME280;54298;52.076;5.264;2023-04-07T06:18:16;101505.0;;;9.77;83.65
67430;BME280;54298;52.076;5.264;2023-04-07T06:19:51;101506.0;;;9.73;83.76
67430;BME280;54298;52.076;5.264;2023-04-07T06:23:03;101506.0;;;9.65;83.98
67430;BME280;54298;52.076;5.264;2023-04-07T06:24:39;101509.0;;;9.71;84.22
67430;BME280;54298;52.076;5.264;2023-04-07T06:26:16;101508.0;;;9.73;84.05
67430;BME280;54298;52.076;5.264;2023-04-07T06:27:52;101508.0;;;9.73;83.93
67430;BME280;54298;52.076;5.264;2023-04-07T06:31:07;101507.0;;;9.74;83.77
67430;BME280;54298;52.076;5.264;2023-04-07T06:32:43;101509.0;;;9.81;83.86
67430;BME280;54298;52.076;5.264;2023-04-07T06:34:19;101515.0;;;9.86;83.8
67430;BME280;54298;52.076;5.264;2023-04-07T06:37:32;101509.0;;;9.77;84.52
67430;BME280;54298;52.076;5.264;2023-04-07T06:39:08;101515.0;;;9.8;84.21
67430;BME280;54298;52.076;5.264;2023-04-07T06:40:44;101520.0;;;9.75;84.27
67430;BME280;54298;52.076;5.264;2023-04-07T06:43:56;101516.0;;;9.82;84.04
67430;BME280;54298;52.076;5.264;2023-04-07T06:45:32;101518.0;;;9.86;84.09
67430;BME280;54298;52.076;5.264;2023-04-07T06:47:09;101521.0;;;9.84;84.1
67430;BME280;54298;52.076;5.264;2023-04-07T06:48:45;101521.0;;;9.86;84.15
67430;BME280;54298;52.076;5.264;2023-04-07T06:51:57;101517.0;;;9.89;84.21
67430;BME280;54298;52.076;5.264;2023-04-07T06:53:33;101530.0;;;9.84;83.67
67430;BME280;54298;52.076;5.264;2023-04-07T06:55:09;101525.0;;;9.82;84.04
67430;BME280;54298;52.076;5.264;2023-04-07T06:58:22;101527.0;;;9.92;84.03
67430;BME280;54298;52.076;5.264;2023-04-07T06:59:57;101528.0;;;9.86;83.85
67430;BME280;54298;52.076;5.264;2023-04-07T07:04:45;101539.0;;;10.02;83.69
67430;BME280;54298;52.076;5.264;2023-04-07T07:06:22;101541.0;;;9.93;83.88
67430;BME280;54298;52.076;5.264;2023-04-07T07:07:58;101538.0;;;10.03;83.78
67430;BME280;54298;52.076;5.264;2023-04-07T07:11:10;101542.0;;;10.0;83.25
67430;BME280;54298;52.076;5.264;2023-04-07T07:12:46;101544.0;;;9.98;83.53
67430;BME280;54298;52.076;5.264;2023-04-07T07:14:22;101546.0;;;9.88;83.77
67430;BME280;54298;52.076;5.264;2023-04-07T07:15:58;101545.0;;;9.96;84.07
67430;BME280;54298;52.076;5.264;2023-04-07T07:19:11;101547.0;;;9.98;84.25
67430;BME280;54298;52.076;5.264;2023-04-07T07:20:47;101548.0;;;9.98;84.7
67430;BME280;54298;52.076;5.264;2023-04-07T07:22:23;101547.0;;;10.0;83.89
67430;BME280;54298;52.076;5.264;2023-04-07T07:25:35;101557.0;;;9.91;83.93
67430;BME280;54298;52.076;5.264;2023-04-07T07:27:12;101555.0;;;10.03;83.13
67430;BME280;54298;52.076;5.264;2023-04-07T07:28:48;101558.0;;;9.99;83.35
67430;BME280;54298;52.076;5.264;2023-04-07T07:32:00;101564.0;;;10.05;82.86
67430;BME280;54298;52.076;5.264;2023-04-07T07:33:36;101562.0;;;10.07;82.69
67430;BME280;54298;52.076;5.264;2023-04-07T07:35:12;101563.0;;;10.05;82.78
67430;BME280;54298;52.076;5.264;2023-04-07T07:36:49;101567.0;;;10.16;82.95
67430;BME280;54298;52.076;5.264;2023-04-07T07:40:02;101575.0;;;10.15;82.74
67430;BME280;54298;52.076;5.264;2023-04-07T07:41:38;101575.0;;;10.22;82.49
67430;BME280;54298;52.076;5.264;2023-04-07T07:43:14;101577.0;;;10.13;82.96
67430;BME280;54298;52.076;5.264;2023-04-07T07:46:27;101576.0;;;10.19;82.46
67430;BME280;54298;52.076;5.264;2023-04-07T07:48:02;101576.0;;;10.23;82.18
67430;BME280;54298;52.076;5.264;2023-04-07T07:49:38;101576.0;;;10.36;81.95
67430;BME280;54298;52.076;5.264;2023-04-07T07:52:51;101576.0;;;10.35;82.04
67430;BME280;54298;52.076;5.264;2023-04-07T07:54:27;101583.0;;;10.39;81.37
67430;BME280;54298;52.076;5.264;2023-04-07T07:56:03;101582.0;;;10.43;81.33
67430;BME280;54298;52.076;5.264;2023-04-07T07:59:16;101581.0;;;10.46;80.91
67430;BME280;54298;52.076;5.264;2023-04-07T08:00:52;101581.0;;;10.44;81.44
67430;BME280;54298;52.076;5.264;2023-04-07T08:02:28;101588.0;;;10.43;80.83
67430;BME280;54298;52.076;5.264;2023-04-07T08:04:04;101585.0;;;10.26;81.11
67430;BME280;54298;52.076;5.264;2023-04-07T08:07:17;101593.0;;;10.4;81.41
67430;BME280;54298;52.076;5.264;2023-04-07T08:08:53;101593.0;;;10.51;80.8
67430;BME280;54298;52.076;5.264;2023-04-07T08:13:42;101596.0;;;10.47;80.3
67430;BME280;54298;52.076;5.264;2023-04-07T08:15:18;101600.0;;;10.51;80.98
67430;BME280;54298;52.076;5.264;2023-04-07T08:16:54;101603.0;;;10.51;81.03
67430;BME280;54298;52.076;5.264;2023-04-07T08:20:08;101605.0;;;10.46;80.95
67430;BME280;54298;52.076;5.264;2023-04-07T08:21:44;101605.0;;;10.42;80.8
67430;BME280;54298;52.076;5.264;2023-04-07T08:23:21;101606.0;;;10.5;80.27
67430;BME280;54298;52.076;5.264;2023-04-07T08:24:57;101607.0;;;10.5;80.58
67430;BME280;54298;52.076;5.264;2023-04-07T08:28:09;101606.0;;;10.47;80.3
67430;BME280;54298;52.076;5.264;2023-04-07T08:29:50;101610.0;;;10.44;80.58
67430;BME280;54298;52.076;5.264;2023-04-07T08:31:32;101609.0;;;10.45;80.48
67430;BME280;54298;52.076;5.264;2023-04-07T08:34:45;101610.0;;;10.4;80.44
67430;BME280;54298;52.076;5.264;2023-04-07T08:36:21;101616.0;;;10.36;80.83
67430;BME280;54298;52.076;5.264;2023-04-07T08:37:57;101618.0;;;10.39;80.3
67430;BME280;54298;52.076;5.264;2023-04-07T08:39:33;101621.0;;;10.47;80.05
67430;BME280;54298;52.076;5.264;2023-04-07T08:42:48;101617.0;;;10.36;79.3
67430;BME280;54298;52.076;5.264;2023-04-07T08:44:24;101619.0;;;10.33;78.53
67430;BME280;54298;52.076;5.264;2023-04-07T08:46:03;101621.0;;;10.44;77.95
67430;BME280;54298;52.076;5.264;2023-04-07T08:49:18;101617.0;;;10.47;78.36
67430;BME280;54298;52.076;5.264;2023-04-07T08:50:57;101625.0;;;10.43;78.25
67430;BME280;54298;52.076;5.264;2023-04-07T08:52:38;101624.0;;;10.56;77.77
67430;BME280;54298;52.076;5.264;2023-04-07T08:54:18;101631.0;;;10.53;78.34
67430;BME280;54298;52.076;5.264;2023-04-07T08:57:33;101632.0;;;10.48;78.22
67430;BME280;54298;52.076;5.264;2023-04-07T08:59:11;101630.0;;;10.39;77.08
67430;BME280;54298;52.076;5.264;2023-04-07T09:00:49;101631.0;;;10.59;76.8
67430;BME280;54298;52.076;5.264;2023-04-07T09:04:03;101634.0;;;10.63;76.61
67430;BME280;54298;52.076;5.264;2023-04-07T09:05:40;101635.0;;;10.69;76.23
67430;BME280;54298;52.076;5.264;2023-04-07T09:07:19;101638.0;;;10.66;75.94
67430;BME280;54298;52.076;5.264;2023-04-07T09:08:55;101642.0;;;10.69;75.36
67430;BME280;54298;52.076;5.264;2023-04-07T09:12:07;101641.0;;;10.7;75.11
67430;BME280;54298;52.076;5.264;2023-04-07T09:13:44;101640.0;;;10.57;75.16
67430;BME280;54298;52.076;5.264;2023-04-07T09:15:20;101646.0;;;10.67;74.47
67430;BME280;54298;52.076;5.264;2023-04-07T09:18:33;101651.0;;;10.84;73.77
67430;BME280;54298;52.076;5.264;2023-04-07T09:20:10;101644.0;;;10.82;74.08
67430;BME280;54298;52.076;5.264;2023-04-07T09:21:47;101648.0;;;10.87;74.12
67430;BME280;54298;52.076;5.264;2023-04-07T09:25:12;101649.0;;;10.81;74.87
67430;BME280;54298;52.076;5.264;2023-04-07T09:27:07;101647.0;;;10.79;73.62
67430;BME280;54298;52.076;5.264;2023-04-07T09:28:45;101647.0;;;10.82;73.23
67430;BME280;54298;52.076;5.264;2023-04-07T09:30:22;101650.0;;;10.93;73.48
67430;BME280;54298;52.076;5.264;2023-04-07T09:31:59;101644.0;;;10.99;73.63
67430;BME280;54298;52.076;5.264;2023-04-07T09:35:12;101647.0;;;11.07;73.39
67430;BME280;54298;52.076;5.264;2023-04-07T09:36:48;101649.0;;;10.93;73.48
67430;BME280;54298;52.076;5.264;2023-04-07T09:38:31;101647.0;;;10.99;73.67
67430;BME280;54298;52.076;5.264;2023-04-07T09:41:45;101650.0;;;11.19;73.47
67430;BME280;54298;52.076;5.264;2023-04-07T09:43:21;101652.0;;;11.12;72.33
67430;BME280;54298;52.076;5.264;2023-04-07T09:44:58;101657.0;;;11.22;72.17
67430;BME280;54298;52.076;5.264;2023-04-07T09:46:34;101659.0;;;11.17;72.92
67430;BME280;54298;52.076;5.264;2023-04-07T09:49:55;101653.0;;;11.08;72.45
67430;BME280;54298;52.076;5.264;2023-04-07T09:51:32;101656.0;;;10.86;72.27
67430;BME280;54298;52.076;5.264;2023-04-07T09:53:08;101661.0;;;11.12;72.66
67430;BME280;54298;52.076;5.264;2023-04-07T09:56:23;101653.0;;;10.98;72.0
67430;BME280;54298;52.076;5.264;2023-04-07T09:58:00;101657.0;;;11.1;72.5
67430;BME280;54298;52.076;5.264;2023-04-07T09:59:40;101658.0;;;11.03;73.3
67430;BME280;54298;52.076;5.264;2023-04-07T10:01:16;101663.0;;;11.08;72.22
67430;BME280;54298;52.076;5.264;2023-04-07T10:04:29;101662.0;;;11.16;71.86
67430;BME280;54298;52.076;5.264;2023-04-07T10:06:06;101664.0;;;11.05;72.83
67430;BME280;54298;52.076;5.264;2023-04-07T10:07:43;101667.0;;;11.25;72.3
67430;BME280;54298;52.076;5.264;2023-04-07T10:10:55;101664.0;;;11.18;72.02
67430;BME280;54298;52.076;5.264;2023-04-07T10:12:33;101665.0;;;11.21;72.58
67430;BME280;54298;52.076;5.264;2023-04-07T10:14:10;101670.0;;;11.23;72.58
67430;BME280;54298;52.076;5.264;2023-04-07T10:15:47;101669.0;;;11.25;71.95
67430;BME280;54298;52.076;5.264;2023-04-07T10:19:01;101669.0;;;11.21;72.12
67430;BME280;54298;52.076;5.264;2023-04-07T10:20:39;101671.0;;;11.29;71.92
67430;BME280;54298;52.076;5.264;2023-04-07T10:22:16;101670.0;;;11.41;71.59
67430;BME280;54298;52.076;5.264;2023-04-07T10:25:41;101678.0;;;11.34;71.48
67430;BME280;54298;52.076;5.264;2023-04-07T10:27:21;101674.0;;;11.29;72.13
67430;BME280;54298;52.076;5.264;2023-04-07T10:29:05;101675.0;;;11.35;71.05
67430;BME280;54298;52.076;5.264;2023-04-07T10:30:46;101676.0;;;11.37;71.25
67430;BME280;54298;52.076;5.264;2023-04-07T10:33:59;101683.0;;;11.36;71.34
67430;BME280;54298;52.076;5.264;2023-04-07T10:36:02;101681.0;;;11.4;71.05
67430;BME280;54298;52.076;5.264;2023-04-07T10:38:09;101688.0;;;11.11;70.98
67430;BME280;54298;52.076;5.264;2023-04-07T10:39:46;101684.0;;;11.33;70.77
67430;BME280;54298;52.076;5.264;2023-04-07T10:41:31;101689.0;;;11.36;71.28
67430;BME280;54298;52.076;5.264;2023-04-07T10:43:07;101690.0;;;11.28;71.55
67430;BME280;54298;52.076;5.264;2023-04-07T10:46:22;101691.0;;;11.35;70.97
67430;BME280;54298;52.076;5.264;2023-04-07T10:48:14;101693.0;;;11.36;70.88
67430;BME280;54298;52.076;5.264;2023-04-07T10:50:24;101689.0;;;11.4;70.89
67430;BME280;54298;52.076;5.264;2023-04-07T10:52:28;101697.0;;;11.44;71.2
67430;BME280;54298;52.076;5.264;2023-04-07T10:54:16;101694.0;;;11.32;71.52
67430;BME280;54298;52.076;5.264;2023-04-07T10:55:53;101700.0;;;11.31;71.45
67430;BME280;54298;52.076;5.264;2023-04-07T10:59:13;101699.0;;;11.29;71.08
67430;BME280;54298;52.076;5.264;2023-04-07T11:03:09;101705.0;;;11.46;71.17
67430;BME280;54298;52.076;5.264;2023-04-07T11:04:46;101705.0;;;11.41;70.81
67430;BME280;54298;52.076;5.264;2023-04-07T11:06:23;101701.0;;;11.45;70.27
67430;BME280;54298;52.076;5.264;2023-04-07T11:09:35;101701.0;;;11.53;69.87
67430;BME280;54298;52.076;5.264;2023-04-07T11:11:12;101706.0;;;11.57;70.28
67430;BME280;54298;52.076;5.264;2023-04-07T11:13:01;101707.0;;;11.53;70.25
67430;BME280;54298;52.076;5.264;2023-04-07T11:14:42;101707.0;;;11.52;70.27
67430;BME280;54298;52.076;5.264;2023-04-07T11:18:14;101712.0;;;11.49;70.75
67430;BME280;54298;52.076;5.264;2023-04-07T11:19:50;101710.0;;;11.65;70.27
67430;BME280;54298;52.076;5.264;2023-04-07T11:21:27;101714.0;;;11.69;70.66
67430;BME280;54298;52.076;5.264;2023-04-07T11:23:03;101712.0;;;11.7;70.61
67430;BME280;54298;52.076;5.264;2023-04-07T11:26:15;101714.0;;;11.72;70.27
67430;BME280;54298;52.076;5.264;2023-04-07T11:27:52;101710.0;;;11.63;70.05
67430;BME280;54298;52.076;5.264;2023-04-07T11:29:28;101712.0;;;11.72;70.08